Time;durP1;ratioP1;P1;durP2;ratioP2;P2;SDS_P1;SDS_P2;PMS_P1;PMS_P2;Temp;Humidity;BMP_temperature;BMP_pressure;BME280_temperature;BME280_humidity;BME280_pressure;Samples;Min_cycle;Max_cycle;Signal;HPM_P1;HPM_P2
2021/05/30 00:01:06;;;;;;;15.52;11.82;;;;;;;;;;5049381;28;20128;-72
2021/05/30 00:03:31;;;;;;;14.00;12.35;;;;;;;;;;5033383;28;20064;-72
2021/05/30 00:05:56;;;;;;;14.05;12.55;;;;;;;;;;5034971;28;20079;-73
2021/05/30 00:08:24;;;;;;;13.65;12.00;;;;;;;;;;5053434;28;20523;-72
2021/05/30 00:10:51;;;;;;;13.85;11.95;;;;;;;;;;5053055;28;20036;-73
2021/05/30 00:13:21;;;;;;;13.52;12.13;;;;;;;;;;5052888;28;20576;-73
2021/05/30 00:15:47;;;;;;;14.88;12.18;;;;;;;;;;5053213;28;20021;-72
2021/05/30 00:18:13;;;;;;;15.35;12.02;;;;;;;;;;5053414;28;20021;-72
2021/05/30 00:20:38;;;;;;;13.40;11.93;;;;;;;;;;5052522;28;20024;-72
2021/05/30 00:23:05;;;;;;;14.30;11.65;;;;;;;;;;5053280;28;20036;-72
2021/05/30 00:25:31;;;;;;;12.65;11.23;;;;;;;;;;5057348;28;20023;-72
2021/05/30 00:27:56;;;;;;;14.32;11.70;;;;;;;;;;5073662;28;20024;-71
2021/05/30 00:30:22;;;;;;;13.55;11.82;;;;;;;;;;5068268;28;20413;-71
2021/05/30 00:32:47;;;;;;;13.25;11.90;;;;;;;;;;5053299;28;20476;-71
2021/05/30 00:35:12;;;;;;;14.70;12.90;;;;;;;;;;5053140;28;20096;-73
2021/05/30 00:37:37;;;;;;;14.32;12.70;;;;;;;;;;5053299;28;20047;-73
2021/05/30 00:40:03;;;;;;;18.65;14.00;;;;;;;;;;5042665;28;20036;-73
2021/05/30 00:42:28;;;;;;;15.80;13.55;;;;;;;;;;5048739;28;20018;-72
2021/05/30 00:44:56;;;;;;;13.90;11.10;;;;;;;;;;5044371;28;20028;-72
2021/05/30 00:47:21;;;;;;;13.57;11.68;;;;;;;;;;5033498;28;20021;-73
2021/05/30 00:49:46;;;;;;;14.00;12.27;;;;;;;;;;5033218;28;20625;-70
2021/05/30 00:52:11;;;;;;;14.20;11.68;;;;;;;;;;5033225;28;20466;-70
2021/05/30 00:54:37;;;;;;;13.05;11.70;;;;;;;;;;5045272;28;20106;-70
2021/05/30 00:57:07;;;;;;;13.43;11.80;;;;;;;;;;5052678;28;20457;-70
2021/05/30 00:59:32;;;;;;;13.68;11.70;;;;;;;;;;5052054;28;20075;-70
2021/05/30 01:01:58;;;;;;;13.13;11.43;;;;;;;;;;5037383;28;20099;-70
2021/05/30 01:04:25;;;;;;;14.55;11.65;;;;;;;;;;5032934;28;20032;-70
2021/05/30 01:06:55;;;;;;;14.60;12.15;;;;;;;;;;5039019;28;20040;-72
2021/05/30 01:09:20;;;;;;;14.77;11.60;;;;;;;;;;5052985;28;20128;-72
2021/05/30 01:11:46;;;;;;;12.65;11.35;;;;;;;;;;5051820;28;20055;-73
2021/05/30 01:14:12;;;;;;;12.93;10.73;;;;;;;;;;5052456;28;20060;-72
2021/05/30 01:16:40;;;;;;;16.40;11.27;;;;;;;;;;5049414;28;20026;-72
2021/05/30 01:19:08;;;;;;;12.73;11.43;;;;;;;;;;5038664;28;20059;-72
2021/05/30 01:21:34;;;;;;;12.93;11.55;;;;;;;;;;5032865;28;20014;-71
2021/05/30 01:23:59;;;;;;;12.48;10.68;;;;;;;;;;5048155;28;20024;-70
2021/05/30 01:26:25;;;;;;;11.82;10.63;;;;;;;;;;5042121;28;20371;-73
2021/05/30 01:28:50;;;;;;;13.07;10.60;;;;;;;;;;5051594;28;20060;-72
2021/05/30 01:31:16;;;;;;;13.50;12.10;;;;;;;;;;5051669;28;20100;-73
2021/05/30 01:33:41;;;;;;;12.98;11.68;;;;;;;;;;5053981;28;20028;-71
2021/05/30 01:36:06;;;;;;;15.48;13.02;;;;;;;;;;5054867;28;20029;-71
2021/05/30 01:38:32;;;;;;;17.85;13.40;;;;;;;;;;5036081;28;20013;-71
2021/05/30 01:40:57;;;;;;;14.98;13.30;;;;;;;;;;5035987;28;20482;-72
2021/05/30 01:43:23;;;;;;;14.52;13.13;;;;;;;;;;5036286;28;20084;-76
2021/05/30 01:45:48;;;;;;;14.95;13.23;;;;;;;;;;5041503;28;20025;-72
2021/05/30 01:48:13;;;;;;;16.35;13.02;;;;;;;;;;5055687;28;20096;-72
2021/05/30 01:50:39;;;;;;;14.23;12.73;;;;;;;;;;5055189;28;20017;-72
2021/05/30 01:53:07;;;;;;;15.52;13.32;;;;;;;;;;5055705;28;20032;-72
2021/05/30 01:58:14;;;;;;;17.65;13.82;;;;;;;;;;5056449;28;20032;-72
2021/05/30 02:00:39;;;;;;;15.07;13.40;;;;;;;;;;5067224;28;20059;-71
2021/05/30 02:03:06;;;;;;;13.68;12.27;;;;;;;;;;5075600;28;20045;-71
2021/05/30 02:05:31;;;;;;;15.15;13.57;;;;;;;;;;5064013;28;20021;-73
2021/05/30 02:07:57;;;;;;;18.13;14.40;;;;;;;;;;5055282;28;20094;-73
2021/05/30 02:10:23;;;;;;;15.02;13.38;;;;;;;;;;5054945;28;20157;-72
2021/05/30 02:12:50;;;;;;;14.30;12.80;;;;;;;;;;5055329;28;20075;-72
2021/05/30 02:15:16;;;;;;;13.80;12.32;;;;;;;;;;5054853;28;20092;-72
2021/05/30 02:17:45;;;;;;;14.52;12.13;;;;;;;;;;5055407;28;20100;-73
2021/05/30 02:20:11;;;;;;;14.60;13.10;;;;;;;;;;5054592;28;20108;-73
2021/05/30 02:22:36;;;;;;;14.35;12.90;;;;;;;;;;5045241;28;20100;-73
2021/05/30 02:25:02;;;;;;;13.73;12.32;;;;;;;;;;5054628;28;20104;-72
2021/05/30 02:27:29;;;;;;;16.10;13.20;;;;;;;;;;5055080;28;20009;-71
2021/05/30 02:29:54;;;;;;;15.07;12.90;;;;;;;;;;5053299;28;20064;-71
2021/05/30 02:32:20;;;;;;;13.93;12.45;;;;;;;;;;5054247;28;20431;-71
2021/05/30 02:34:45;;;;;;;13.77;12.20;;;;;;;;;;5036474;28;20469;-72
2021/05/30 02:37:11;;;;;;;13.82;12.40;;;;;;;;;;5034954;28;20022;-70
2021/05/30 02:39:36;;;;;;;14.40;12.35;;;;;;;;;;5066983;28;20029;-71
2021/05/30 02:42:04;;;;;;;14.02;12.57;;;;;;;;;;5035219;28;20017;-71
2021/05/30 02:44:30;;;;;;;13.25;11.90;;;;;;;;;;5042871;28;20067;-71
2021/05/30 02:46:55;;;;;;;13.25;11.90;;;;;;;;;;5055024;28;20464;-71
2021/05/30 02:49:24;;;;;;;14.68;11.95;;;;;;;;;;5054982;28;20029;-70
2021/05/30 02:51:49;;;;;;;14.00;12.70;;;;;;;;;;5069703;28;20021;-70
2021/05/30 02:54:14;;;;;;;13.65;12.25;;;;;;;;;;5054000;28;20331;-72
2021/05/30 02:56:42;;;;;;;15.35;12.32;;;;;;;;;;5054192;28;20032;-70
2021/05/30 02:59:08;;;;;;;12.18;11.02;;;;;;;;;;5053379;28;20025;-71
2021/05/30 03:01:33;;;;;;;11.93;10.57;;;;;;;;;;5053926;28;20024;-71
2021/05/30 03:04:00;;;;;;;13.77;12.25;;;;;;;;;;5054385;28;20489;-71
2021/05/30 03:06:26;;;;;;;13.95;10.90;;;;;;;;;;5057204;28;20025;-72
2021/05/30 03:08:51;;;;;;;14.95;12.68;;;;;;;;;;5054196;28;20106;-72
2021/05/30 03:11:19;;;;;;;12.75;11.30;;;;;;;;;;5054514;28;20413;-71
2021/05/30 03:13:49;;;;;;;14.30;12.70;;;;;;;;;;5053881;28;20029;-71
2021/05/30 03:16:14;;;;;;;14.35;11.60;;;;;;;;;;5054329;28;20120;-72
2021/05/30 03:18:39;;;;;;;13.65;11.40;;;;;;;;;;5053895;28;20408;-70
2021/05/30 03:21:09;;;;;;;17.20;11.30;;;;;;;;;;5054287;28;20032;-71
2021/05/30 03:23:35;;;;;;;13.93;11.95;;;;;;;;;;5054291;28;20024;-71
2021/05/30 03:26:01;;;;;;;13.82;12.38;;;;;;;;;;5054407;28;20023;-72
2021/05/30 03:28:26;;;;;;;13.77;11.88;;;;;;;;;;5053468;28;20049;-71
2021/05/30 03:30:51;;;;;;;14.05;12.55;;;;;;;;;;5086779;28;20032;-72
2021/05/30 03:33:16;;;;;;;14.82;12.35;;;;;;;;;;5053212;28;20085;-73
2021/05/30 03:35:44;;;;;;;13.27;11.93;;;;;;;;;;5053118;28;20151;-71
2021/05/30 03:38:11;;;;;;;14.45;12.07;;;;;;;;;;5053207;28;20017;-72
2021/05/30 03:43:11;;;;;;;16.25;13.07;;;;;;;;;;5048643;28;20021;-73
2021/05/30 03:45:39;;;;;;;15.10;12.00;;;;;;;;;;5053724;28;20040;-74
2021/05/30 03:48:05;;;;;;;13.98;12.57;;;;;;;;;;5053087;28;20029;-73
2021/05/30 03:50:30;;;;;;;14.70;13.30;;;;;;;;;;5053720;28;20025;-72
2021/05/30 03:52:55;;;;;;;15.13;13.27;;;;;;;;;;5052813;28;20028;-75
2021/05/30 03:55:21;;;;;;;14.02;11.73;;;;;;;;;;5053212;28;20567;-72
2021/05/30 03:57:46;;;;;;;17.67;13.52;;;;;;;;;;5041502;28;20032;-72
2021/05/30 04:00:16;;;;;;;14.63;13.13;;;;;;;;;;5049396;28;20361;-74
2021/05/30 04:02:44;;;;;;;15.50;12.93;;;;;;;;;;5053125;28;20110;-73
2021/05/30 04:05:10;;;;;;;14.30;12.80;;;;;;;;;;5052857;28;20029;-72
2021/05/30 04:07:38;;;;;;;17.35;14.10;;;;;;;;;;5053228;28;20021;-72
2021/05/30 04:10:06;;;;;;;15.77;14.15;;;;;;;;;;5062411;28;20047;-72
2021/05/30 04:12:32;;;;;;;17.75;14.10;;;;;;;;;;5072237;28;20380;-72
2021/05/30 04:14:58;;;;;;;15.90;13.95;;;;;;;;;;5063682;28;20107;-70
2021/05/30 04:17:26;;;;;;;15.35;13.57;;;;;;;;;;5053407;28;20112;-68
2021/05/30 04:19:51;;;;;;;18.13;13.65;;;;;;;;;;5053370;28;20123;-68
2021/05/30 04:22:19;;;;;;;16.40;12.90;;;;;;;;;;5053501;28;20048;-68
2021/05/30 04:24:44;;;;;;;15.10;12.82;;;;;;;;;;5048523;28;20037;-66
2021/05/30 04:27:10;;;;;;;15.25;13.70;;;;;;;;;;5037618;28;20074;-67
2021/05/30 04:29:37;;;;;;;13.60;12.30;;;;;;;;;;5053133;28;20017;-66
2021/05/30 04:32:04;;;;;;;14.15;12.23;;;;;;;;;;5052572;28;20036;-66
2021/05/30 04:34:31;;;;;;;14.40;12.20;;;;;;;;;;5051370;28;20025;-68
2021/05/30 04:36:57;;;;;;;14.55;13.15;;;;;;;;;;5052298;28;20039;-66
2021/05/30 04:39:31;;;;;;;15.90;14.23;;;;;;;;;;5052445;28;20029;-64
2021/05/30 04:41:56;;;;;;;12.80;11.52;;;;;;;;;;5052703;28;20108;-65
2021/05/30 04:44:21;;;;;;;15.15;12.90;;;;;;;;;;5053171;28;20099;-64
2021/05/30 04:46:46;;;;;;;15.97;13.73;;;;;;;;;;5052839;28;20021;-64
2021/05/30 04:49:14;;;;;;;16.08;13.25;;;;;;;;;;5052573;28;20268;-63
2021/05/30 04:51:40;;;;;;;17.05;14.02;;;;;;;;;;5052779;28;20020;-64
2021/05/30 04:54:05;;;;;;;14.48;12.95;;;;;;;;;;5052947;28;20021;-65
2021/05/30 04:56:33;;;;;;;14.07;12.30;;;;;;;;;;5054639;28;20032;-64
2021/05/30 04:58:58;;;;;;;14.10;12.70;;;;;;;;;;5049057;28;20107;-65
2021/05/30 05:01:25;;;;;;;14.07;12.70;;;;;;;;;;5055548;28;20099;-64
2021/05/30 05:03:51;;;;;;;15.13;13.57;;;;;;;;;;5032789;28;20021;-64
2021/05/30 05:06:16;;;;;;;13.98;12.68;;;;;;;;;;5032547;28;20488;-64
2021/05/30 05:08:43;;;;;;;13.55;12.15;;;;;;;;;;5054354;28;20461;-64
2021/05/30 05:11:11;;;;;;;14.30;12.13;;;;;;;;;;5056608;28;20035;-66
2021/05/30 05:13:36;;;;;;;12.85;11.55;;;;;;;;;;5037189;28;20029;-67
2021/05/30 05:16:04;;;;;;;14.18;12.73;;;;;;;;;;5036421;28;20475;-66
2021/05/30 05:18:32;;;;;;;14.82;12.70;;;;;;;;;;5053212;28;20033;-64
2021/05/30 05:20:58;;;;;;;13.30;11.77;;;;;;;;;;5056202;28;20373;-64
2021/05/30 05:23:24;;;;;;;12.23;10.93;;;;;;;;;;5055858;28;20017;-64
2021/05/30 05:25:55;;;;;;;13.82;12.35;;;;;;;;;;5056468;28;20024;-64
2021/05/30 05:28:23;;;;;;;14.18;12.68;;;;;;;;;;5056883;28;20346;-65
2021/05/30 05:30:48;;;;;;;14.65;12.55;;;;;;;;;;5055418;28;20071;-65
2021/05/30 05:33:14;;;;;;;16.65;12.57;;;;;;;;;;5056111;28;20028;-66
2021/05/30 05:35:39;;;;;;;15.57;12.95;;;;;;;;;;5055428;28;20041;-66
2021/05/30 05:38:04;;;;;;;14.27;12.88;;;;;;;;;;5056125;28;20024;-65
2021/05/30 05:40:29;;;;;;;13.20;11.85;;;;;;;;;;5056134;28;20017;-66
2021/05/30 05:42:55;;;;;;;15.18;12.68;;;;;;;;;;5053266;28;20032;-65
2021/05/30 05:45:23;;;;;;;14.35;12.27;;;;;;;;;;5055803;28;20342;-66
2021/05/30 05:47:49;;;;;;;14.88;13.43;;;;;;;;;;5059474;28;20029;-66
2021/05/30 05:50:15;;;;;;;15.63;13.88;;;;;;;;;;5056789;28;20029;-66
2021/05/30 05:52:45;;;;;;;15.80;13.02;;;;;;;;;;5056082;28;20457;-66
2021/05/30 05:55:10;;;;;;;15.95;14.15;;;;;;;;;;5055797;28;20025;-66
2021/05/30 05:57:37;;;;;;;14.75;13.25;;;;;;;;;;5048918;28;20024;-66
2021/05/30 06:00:13;;;;;;;14.70;13.13;;;;;;;;;;5051191;28;20029;-66
2021/05/30 06:02:38;;;;;;;15.50;13.30;;;;;;;;;;5053768;28;20347;-66
2021/05/30 06:05:04;;;;;;;14.07;12.65;;;;;;;;;;5055119;28;20142;-66
2021/05/30 06:07:29;;;;;;;15.30;13.73;;;;;;;;;;5054734;28;20369;-66
2021/05/30 06:09:55;;;;;;;12.98;11.38;;;;;;;;;;5056503;28;20049;-65
2021/05/30 06:12:20;;;;;;;15.75;12.93;;;;;;;;;;5064670;28;20020;-67
2021/05/30 06:14:47;;;;;;;14.27;12.15;;;;;;;;;;5052569;28;20035;-67
2021/05/30 06:17:13;;;;;;;14.13;12.45;;;;;;;;;;5055284;28;20048;-65
2021/05/30 06:19:40;;;;;;;13.57;12.18;;;;;;;;;;5055006;28;20425;-65
2021/05/30 06:22:10;;;;;;;12.80;11.60;;;;;;;;;;5070194;28;20017;-65
2021/05/30 06:24:36;;;;;;;12.75;11.40;;;;;;;;;;5057427;28;20017;-67
2021/05/30 06:27:02;;;;;;;13.20;11.57;;;;;;;;;;5055757;28;20127;-66
2021/05/30 06:29:27;;;;;;;10.98;9.88;;;;;;;;;;5059388;28;20330;-66
2021/05/30 06:31:54;;;;;;;12.30;11.10;;;;;;;;;;5054120;28;20043;-66
2021/05/30 06:34:21;;;;;;;12.52;10.80;;;;;;;;;;5055799;28;20017;-65
2021/05/30 06:36:50;;;;;;;14.45;10.80;;;;;;;;;;5059876;28;20020;-65
2021/05/30 06:39:16;;;;;;;11.30;9.98;;;;;;;;;;5063465;28;20445;-65
2021/05/30 06:41:41;;;;;;;13.38;9.65;;;;;;;;;;5066105;28;20031;-65
2021/05/30 06:44:06;;;;;;;12.13;9.80;;;;;;;;;;5063363;28;20021;-65
2021/05/30 06:46:32;;;;;;;13.05;9.90;;;;;;;;;;5054367;28;20088;-65
2021/05/30 06:48:57;;;;;;;11.45;9.93;;;;;;;;;;5062609;28;20025;-66
2021/05/30 06:51:32;;;;;;;12.88;9.85;;;;;;;;;;5055330;28;20040;-66
2021/05/30 06:54:02;;;;;;;11.10;9.15;;;;;;;;;;5048144;28;20116;-68
2021/05/30 06:56:27;;;;;;;11.15;9.23;;;;;;;;;;5053301;28;20033;-69
2021/05/30 06:58:53;;;;;;;12.90;9.68;;;;;;;;;;5038693;28;20031;-68
2021/05/30 07:01:21;;;;;;;10.57;9.57;;;;;;;;;;5055262;28;20025;-67
2021/05/30 07:03:47;;;;;;;11.45;9.35;;;;;;;;;;5050295;28;20126;-66
2021/05/30 07:06:13;;;;;;;11.65;9.63;;;;;;;;;;5053267;28;20115;-66
2021/05/30 07:08:38;;;;;;;10.25;9.25;;;;;;;;;;5054064;28;20045;-66
2021/05/30 07:11:03;;;;;;;12.52;8.70;;;;;;;;;;5047605;28;20041;-67
2021/05/30 07:13:29;;;;;;;10.32;8.95;;;;;;;;;;5052463;28;20151;-66
2021/05/30 07:15:54;;;;;;;12.52;9.38;;;;;;;;;;5053043;28;20052;-66
2021/05/30 07:18:19;;;;;;;9.65;8.57;;;;;;;;;;5049468;28;20021;-66
2021/05/30 07:20:48;;;;;;;14.18;8.85;;;;;;;;;;5047493;28;20029;-66
2021/05/30 07:23:14;;;;;;;9.73;8.73;;;;;;;;;;5047043;28;20035;-66
2021/05/30 07:25:39;;;;;;;10.45;9.07;;;;;;;;;;5054741;28;20024;-65
2021/05/30 07:28:07;;;;;;;9.93;8.02;;;;;;;;;;5054225;28;20020;-64
2021/05/30 07:30:37;;;;;;;12.57;9.20;;;;;;;;;;5047683;28;20029;-65
2021/05/30 07:33:06;;;;;;;10.45;8.30;;;;;;;;;;5045248;28;20028;-65
2021/05/30 07:35:31;;;;;;;11.10;8.73;;;;;;;;;;5041515;28;20105;-66
2021/05/30 07:37:57;;;;;;;10.15;9.10;;;;;;;;;;5047559;28;20278;-65
2021/05/30 07:40:23;;;;;;;10.05;8.50;;;;;;;;;;5054015;28;20017;-67
2021/05/30 07:42:48;;;;;;;12.30;9.15;;;;;;;;;;5044407;28;20025;-66
2021/05/30 07:45:16;;;;;;;10.23;8.23;;;;;;;;;;5046625;28;20100;-68
2021/05/30 07:47:42;;;;;;;9.27;8.27;;;;;;;;;;5052506;28;20417;-68
2021/05/30 07:50:08;;;;;;;11.57;9.00;;;;;;;;;;5053901;28;20056;-69
2021/05/30 07:52:34;;;;;;;10.93;8.70;;;;;;;;;;5055294;28;20029;-66
2021/05/30 07:54:59;;;;;;;8.85;7.95;;;;;;;;;;5059669;28;20021;-65
2021/05/30 07:57:24;;;;;;;11.27;7.95;;;;;;;;;;5053166;28;20075;-65
2021/05/30 07:59:49;;;;;;;10.90;7.80;;;;;;;;;;5053563;28;20036;-66
2021/05/30 08:02:15;;;;;;;11.48;7.97;;;;;;;;;;5053594;28;20074;-64
2021/05/30 08:04:40;;;;;;;8.95;7.63;;;;;;;;;;5054257;28;20027;-58
2021/05/30 08:07:05;;;;;;;8.60;7.55;;;;;;;;;;5051434;28;20049;-58
2021/05/30 08:09:33;;;;;;;9.77;6.90;;;;;;;;;;5047984;28;20065;-58
2021/05/30 08:11:58;;;;;;;8.60;7.60;;;;;;;;;;5044645;28;20037;-57
2021/05/30 08:14:24;;;;;;;9.73;7.30;;;;;;;;;;5051076;28;20032;-58
2021/05/30 08:16:50;;;;;;;9.13;7.25;;;;;;;;;;5045774;28;20346;-57
2021/05/30 08:19:15;;;;;;;7.82;6.75;;;;;;;;;;5039568;28;20036;-57
2021/05/30 08:21:41;;;;;;;9.13;6.95;;;;;;;;;;5052371;28;20017;-58
2021/05/30 08:24:09;;;;;;;8.48;6.53;;;;;;;;;;5053290;28;20017;-57
2021/05/30 08:26:35;;;;;;;9.25;7.20;;;;;;;;;;5051846;28;20120;-57
2021/05/30 08:29:00;;;;;;;10.23;6.50;;;;;;;;;;5049700;28;20104;-57
2021/05/30 08:31:25;;;;;;;9.13;6.70;;;;;;;;;;5050167;28;20020;-57
2021/05/30 08:33:50;;;;;;;6.40;5.75;;;;;;;;;;5053061;28;20017;-58
2021/05/30 08:36:16;;;;;;;8.60;5.93;;;;;;;;;;5050180;28;20487;-58
2021/05/30 08:38:41;;;;;;;9.32;6.88;;;;;;;;;;5053049;28;20354;-58
2021/05/30 08:41:06;;;;;;;10.82;6.88;;;;;;;;;;5052648;28;20419;-58
2021/05/30 08:43:31;;;;;;;8.05;6.50;;;;;;;;;;5056424;28;20017;-58
2021/05/30 08:45:57;;;;;;;8.05;6.32;;;;;;;;;;5057499;28;20040;-58
2021/05/30 08:48:24;;;;;;;7.75;5.93;;;;;;;;;;5054731;28;20063;-59
2021/05/30 08:51:02;;;;;;;7.40;6.50;;;;;;;;;;5057359;28;20036;-58
2021/05/30 08:53:28;;;;;;;6.90;5.97;;;;;;;;;;5057212;28;20021;-58
2021/05/30 08:55:56;;;;;;;7.10;5.40;;;;;;;;;;5057399;28;20036;-58
2021/05/30 08:58:21;;;;;;;8.27;5.65;;;;;;;;;;5057421;28;20048;-57
2021/05/30 09:01:08;;;;;;;7.63;5.20;;;;;;;;;;5056962;28;20055;-57
2021/05/30 09:03:33;;;;;;;7.90;5.50;;;;;;;;;;5056695;28;20077;-58
2021/05/30 09:06:15;;;;;;;6.78;5.60;;;;;;;;;;5056663;28;20033;-58
2021/05/30 09:08:43;;;;;;;6.50;5.30;;;;;;;;;;5041001;28;20068;-58
2021/05/30 09:11:09;;;;;;;6.20;5.07;;;;;;;;;;5036949;28;20025;-57
2021/05/30 09:13:52;;;;;;;5.65;4.78;;;;;;;;;;5049980;28;20468;-57
2021/05/30 09:16:20;;;;;;;5.75;4.85;;;;;;;;;;5047769;28;20116;-58
2021/05/30 09:18:46;;;;;;;6.57;4.90;;;;;;;;;;5056588;28;20017;-58
2021/05/30 09:21:12;;;;;;;6.33;4.70;;;;;;;;;;5055226;28;20066;-58
2021/05/30 09:23:56;;;;;;;6.00;4.68;;;;;;;;;;5055280;28;20337;-59
2021/05/30 09:26:22;;;;;;;5.57;4.30;;;;;;;;;;5072671;28;20024;-58
2021/05/30 09:29:05;;;;;;;5.25;4.47;;;;;;;;;;5052069;28;20100;-59
2021/05/30 09:31:31;;;;;;;5.57;3.75;;;;;;;;;;5055351;28;20025;-60
2021/05/30 09:33:57;;;;;;;5.35;3.50;;;;;;;;;;5056125;28;20143;-60
2021/05/30 09:36:22;;;;;;;3.80;3.45;;;;;;;;;;5056072;28;20037;-60
2021/05/30 09:38:48;;;;;;;4.05;3.53;;;;;;;;;;5055847;28;20029;-60
2021/05/30 09:41:16;;;;;;;6.07;3.50;;;;;;;;;;5056190;28;20361;-59
2021/05/30 09:43:49;;;;;;;4.43;3.22;;;;;;;;;;5089011;28;20025;-59
2021/05/30 09:46:20;;;;;;;3.75;3.25;;;;;;;;;;5055605;28;20079;-60
2021/05/30 09:48:48;;;;;;;4.68;3.20;;;;;;;;;;5065345;28;20108;-58
2021/05/30 09:51:24;;;;;;;5.32;3.38;;;;;;;;;;5036814;28;20037;-58
2021/05/30 09:53:49;;;;;;;3.08;2.72;;;;;;;;;;5053608;28;20032;-58
2021/05/30 09:56:31;;;;;;;2.97;2.67;;;;;;;;;;5055092;28;20029;-58
2021/05/30 09:58:57;;;;;;;4.30;2.60;;;;;;;;;;5051108;28;20271;-59
2021/05/30 10:01:26;;;;;;;3.80;2.72;;;;;;;;;;5054868;28;20020;-58
2021/05/30 10:03:57;;;;;;;3.10;2.80;;;;;;;;;;5054535;28;20025;-59
2021/05/30 10:06:23;;;;;;;5.38;2.70;;;;;;;;;;5055362;28;20060;-59
2021/05/30 10:08:48;;;;;;;2.63;2.42;;;;;;;;;;5055029;28;20094;-59
2021/05/30 10:11:14;;;;;;;2.80;2.28;;;;;;;;;;5054334;28;20223;-59
2021/05/30 10:13:40;;;;;;;2.83;2.40;;;;;;;;;;5055378;28;20012;-59
2021/05/30 10:16:05;;;;;;;2.38;2.03;;;;;;;;;;5055276;28;20020;-59
2021/05/30 10:18:39;;;;;;;3.28;2.10;;;;;;;;;;5054179;28;20029;-60
2021/05/30 10:21:05;;;;;;;5.00;2.30;;;;;;;;;;5054723;28;20060;-59
2021/05/30 10:23:35;;;;;;;2.20;1.98;;;;;;;;;;5055001;28;20358;-59
2021/05/30 10:26:20;;;;;;;2.33;2.05;;;;;;;;;;5055515;28;20017;-59
2021/05/30 10:28:47;;;;;;;4.13;2.58;;;;;;;;;;5054688;28;20032;-70
2021/05/30 10:31:16;;;;;;;2.33;2.00;;;;;;;;;;5035228;28;20148;-66
2021/05/30 10:33:42;;;;;;;2.80;1.90;;;;;;;;;;5035099;28;20350;-67
2021/05/30 10:36:12;;;;;;;3.33;2.05;;;;;;;;;;5052756;28;20028;-66
2021/05/30 10:38:40;;;;;;;4.05;2.38;;;;;;;;;;5055429;28;20179;-67
2021/05/30 10:41:15;;;;;;;2.55;2.30;;;;;;;;;;5054268;28;20033;-66
2021/05/30 10:43:41;;;;;;;2.65;1.88;;;;;;;;;;5055579;28;20044;-66
2021/05/30 10:46:07;;;;;;;2.30;2.00;;;;;;;;;;5065673;28;20453;-66
2021/05/30 10:48:35;;;;;;;2.80;2.05;;;;;;;;;;5053777;28;20497;-68
2021/05/30 10:53:30;;;;;;;2.33;1.95;;;;;;;;;;5053747;28;20095;-70
2021/05/30 10:56:14;;;;;;;4.10;2.35;;;;;;;;;;5052171;28;20049;-68
2021/05/30 10:58:40;;;;;;;2.08;1.80;;;;;;;;;;5052662;28;20028;-69
2021/05/30 11:01:05;;;;;;;4.40;1.90;;;;;;;;;;5054251;28;20338;-70
2021/05/30 11:03:33;;;;;;;1.60;1.50;;;;;;;;;;5054193;28;20442;-69
2021/05/30 11:05:58;;;;;;;1.90;1.80;;;;;;;;;;5052419;28;20021;-65
2021/05/30 11:08:33;;;;;;;3.87;1.77;;;;;;;;;;5051704;28;20051;-65
2021/05/30 11:11:17;;;;;;;4.53;1.77;;;;;;;;;;5051624;28;20580;-65
2021/05/30 11:13:48;;;;;;;1.75;1.52;;;;;;;;;;5053601;28;20032;-66
2021/05/30 11:16:16;;;;;;;2.72;1.52;;;;;;;;;;5053412;28;20024;-65
2021/05/30 11:18:41;;;;;;;2.13;1.60;;;;;;;;;;5046181;28;20025;-68
2021/05/30 11:21:09;;;;;;;3.33;1.90;;;;;;;;;;5047946;28;20330;-65
2021/05/30 11:23:34;;;;;;;2.60;1.70;;;;;;;;;;5048482;28;20056;-68
2021/05/30 11:26:01;;;;;;;1.73;1.50;;;;;;;;;;5052631;28;20480;-64
2021/05/30 11:28:30;;;;;;;2.13;1.45;;;;;;;;;;5053275;28;20343;-65
2021/05/30 11:30:59;;;;;;;3.58;1.77;;;;;;;;;;5052098;28;20033;-67
2021/05/30 11:33:25;;;;;;;3.40;1.92;;;;;;;;;;5042381;28;20507;-60
2021/05/30 11:35:52;;;;;;;3.08;1.70;;;;;;;;;;5052637;28;20040;-59
2021/05/30 11:38:30;;;;;;;3.35;1.95;;;;;;;;;;5053470;28;20084;-60
2021/05/30 11:41:08;;;;;;;5.70;1.60;;;;;;;;;;5052476;28;20106;-61
2021/05/30 11:43:33;;;;;;;1.77;1.60;;;;;;;;;;5048968;28;20009;-60
2021/05/30 11:46:09;;;;;;;2.53;1.80;;;;;;;;;;5066898;28;20025;-60
2021/05/30 11:48:34;;;;;;;1.58;1.40;;;;;;;;;;5050175;28;20363;-61
2021/05/30 11:51:01;;;;;;;3.77;1.50;;;;;;;;;;5053437;28;20404;-60
2021/05/30 11:53:28;;;;;;;2.75;1.60;;;;;;;;;;5048464;28;20025;-67
2021/05/30 11:55:54;;;;;;;3.17;1.80;;;;;;;;;;5047138;28;20028;-68
2021/05/30 11:58:19;;;;;;;3.13;1.50;;;;;;;;;;5048964;28;20025;-71
2021/05/30 12:00:44;;;;;;;2.05;1.70;;;;;;;;;;5048612;28;20108;-66
2021/05/30 12:03:10;;;;;;;1.63;1.33;;;;;;;;;;5047253;28;20021;-67
2021/05/30 12:05:38;;;;;;;2.08;1.45;;;;;;;;;;5042798;28;20449;-63
2021/05/30 12:08:16;;;;;;;2.45;1.75;;;;;;;;;;5047482;28;20112;-68
2021/05/30 12:10:48;;;;;;;3.92;2.72;;;;;;;;;;5052177;28;20024;-67
2021/05/30 12:13:34;;;;;;;5.40;1.58;;;;;;;;;;5053380;28;20013;-69
2021/05/30 12:16:22;;;;;;;9.43;4.50;;;;;;;;;;5032048;28;20405;-65
2021/05/30 12:18:54;;;;;;;4.82;1.58;;;;;;;;;;5033486;28;20022;-68
2021/05/30 12:21:20;;;;;;;2.25;1.52;;;;;;;;;;5051942;28;20490;-67
2021/05/30 12:23:45;;;;;;;1.83;1.40;;;;;;;;;;5047360;28;20796;-65
2021/05/30 12:26:11;;;;;;;2.10;1.58;;;;;;;;;;5052846;28;20108;-67
2021/05/30 12:28:40;;;;;;;3.00;1.40;;;;;;;;;;5052160;28;20017;-71
2021/05/30 12:31:15;;;;;;;1.77;1.60;;;;;;;;;;5068875;28;20388;-67
2021/05/30 12:33:40;;;;;;;;;;;;;;;;;;5053925;28;20029;-67
2021/05/30 12:36:05;;;;;;;2.13;1.52;;;;;;;;;;5052789;28;19908;-69
2021/05/30 12:38:31;;;;;;;2.07;1.70;;;;;;;;;;5053323;28;20057;-69
2021/05/30 12:40:56;;;;;;;2.50;1.50;;;;;;;;;;5051912;28;20291;-76
2021/05/30 12:43:40;;;;;;;1.73;1.37;;;;;;;;;;5053061;28;20338;-67
2021/05/30 12:46:06;;;;;;;1.73;1.25;;;;;;;;;;5053403;28;20259;-71
2021/05/30 12:48:42;;;;;;;2.78;1.30;;;;;;;;;;5050137;28;20036;-69
2021/05/30 12:51:18;;;;;;;1.50;1.30;;;;;;;;;;5033192;28;20032;-70
2021/05/30 12:53:45;;;;;;;2.25;1.25;;;;;;;;;;5033338;28;20018;-67
2021/05/30 12:56:15;;;;;;;2.08;1.30;;;;;;;;;;5033227;28;20033;-68
2021/05/30 12:58:40;;;;;;;5.70;1.70;;;;;;;;;;5052646;28;20018;-68
2021/05/30 13:01:18;;;;;;;1.83;1.27;;;;;;;;;;5051942;28;20431;-68
2021/05/30 13:03:44;;;;;;;1.88;1.20;;;;;;;;;;5051261;28;20025;-69
2021/05/30 13:06:09;;;;;;;2.10;1.33;;;;;;;;;;5033083;28;20032;-68
2021/05/30 13:08:34;;;;;;;2.70;1.55;;;;;;;;;;5032950;28;20056;-68
2021/05/30 13:11:08;;;;;;;3.65;1.30;;;;;;;;;;5051579;28;20025;-70
2021/05/30 13:13:41;;;;;;;1.55;1.33;;;;;;;;;;5053203;28;20053;-69
2021/05/30 13:16:07;;;;;;;3.85;1.45;;;;;;;;;;5033867;28;20058;-69
2021/05/30 13:18:48;;;;;;;3.17;1.40;;;;;;;;;;5044906;28;20056;-69
2021/05/30 13:21:20;;;;;;;1.65;1.10;;;;;;;;;;5052131;28;20029;-69
2021/05/30 13:24:01;;;;;;;2.75;1.20;;;;;;;;;;5051531;28;20017;-59
2021/05/30 13:26:27;;;;;;;2.53;1.25;;;;;;;;;;5050338;28;20332;-58
2021/05/30 13:28:52;;;;;;;3.77;1.40;;;;;;;;;;5052057;28;20035;-59
2021/05/30 13:31:18;;;;;;;2.00;1.13;;;;;;;;;;5055427;28;20533;-58
2021/05/30 13:33:44;;;;;;;1.55;1.05;;;;;;;;;;5071633;28;20025;-59
2021/05/30 13:36:10;;;;;;;4.90;1.50;;;;;;;;;;5037328;28;20362;-59
2021/05/30 13:38:36;;;;;;;1.75;1.30;;;;;;;;;;5036455;28;20405;-59
2021/05/30 13:41:04;;;;;;;1.85;1.20;;;;;;;;;;5041467;28;20124;-59
2021/05/30 13:43:31;;;;;;;2.20;1.25;;;;;;;;;;5056292;28;20032;-60
2021/05/30 13:45:57;;;;;;;1.45;1.20;;;;;;;;;;5055107;28;20112;-60
2021/05/30 13:48:22;;;;;;;1.67;1.30;;;;;;;;;;5056076;28;20096;-60
2021/05/30 13:51:00;;;;;;;4.07;1.30;;;;;;;;;;5049464;28;20121;-59
2021/05/30 13:53:29;;;;;;;2.15;1.10;;;;;;;;;;5036044;28;20558;-59
2021/05/30 13:55:54;;;;;;;2.05;1.30;;;;;;;;;;5049641;28;20059;-59
2021/05/30 13:58:19;;;;;;;2.08;1.30;;;;;;;;;;5071588;28;20437;-59
2021/05/30 14:00:47;;;;;;;3.07;1.10;;;;;;;;;;5055639;28;20426;-59
2021/05/30 14:03:14;;;;;;;2.05;1.35;;;;;;;;;;5053442;28;20028;-59
2021/05/30 14:05:42;;;;;;;2.78;1.15;;;;;;;;;;5071260;28;20025;-59
2021/05/30 14:08:10;;;;;;;3.75;1.40;;;;;;;;;;5054484;28;20041;-60
2021/05/30 14:10:37;;;;;;;1.42;1.10;;;;;;;;;;5063804;28;20096;-59
2021/05/30 14:13:02;;;;;;;1.30;1.10;;;;;;;;;;5054822;28;20071;-59
2021/05/30 14:15:28;;;;;;;4.13;2.40;;;;;;;;;;5055384;28;20337;-58
2021/05/30 14:17:53;;;;;;;2.97;1.40;;;;;;;;;;5070429;28;20362;-67
2021/05/30 14:20:20;;;;;;;3.87;1.83;;;;;;;;;;5055155;28;20280;-66
2021/05/30 14:22:45;;;;;;;3.75;1.67;;;;;;;;;;5053162;28;20461;-67
2021/05/30 14:25:11;;;;;;;2.25;1.13;;;;;;;;;;5054759;28;20016;-66
2021/05/30 14:27:37;;;;;;;3.22;2.25;;;;;;;;;;5071087;28;20489;-65
2021/05/30 14:30:03;;;;;;;2.45;1.40;;;;;;;;;;5053380;28;20016;-66
2021/05/30 14:32:28;;;;;;;1.85;1.20;;;;;;;;;;5052148;28;20568;-66
2021/05/30 14:34:54;;;;;;;2.13;1.30;;;;;;;;;;5054753;28;20111;-65
2021/05/30 14:37:19;;;;;;;2.10;1.17;;;;;;;;;;5049781;28;20098;-67
2021/05/30 14:39:46;;;;;;;1.65;1.10;;;;;;;;;;5045836;28;20156;-67